Time;durP1;ratioP1;P1;durP2;ratioP2;P2;SDS_P1;SDS_P2;PMS_P1;PMS_P2;Temp;Humidity;BMP_temperature;BMP_pressure;BME280_temperature;BME280_humidity;BME280_pressure;Samples;Min_cycle;Max_cycle;Signal;HPM_P1;HPM_P2
2023/06/15 00:01:53;;;;;;;;;;;;;;;22.58;54.93;100554.50;4953857;28;19922;-76
2023/06/15 00:04:41;;;;;;;;;;;;;;;22.51;55.21;100548.97;4971406;28;19914;-76
2023/06/15 00:07:25;;;;;;;;;;;;;;;22.57;55.21;100542.63;4974001;28;19914;-76
2023/06/15 00:10:10;;;;;;;;;;;;;;;22.50;54.71;100539.84;4967716;28;19918;-77
2023/06/15 00:12:55;;;;;;;;;;;;;;;22.39;54.30;100535.56;4971862;28;19914;-76
2023/06/15 00:15:39;;;;;;;;;;;;;;;22.16;54.50;100545.09;4972898;28;20323;-76
2023/06/15 00:18:25;;;;;;;;;;;;;;;22.08;54.93;100537.19;4973706;28;19914;-75
2023/06/15 00:21:13;;;;;;;;;;;;;;;22.08;55.13;100543.53;4948350;28;19914;-77
2023/06/15 00:23:58;;;;;;;;;;;;;;;22.08;55.14;100537.97;4959699;28;19914;-76
2023/06/15 00:26:43;;;;;;;;;;;;;;;22.01;55.04;100539.94;4966689;28;19914;-76
2023/06/15 00:29:28;;;;;;;;;;;;;;;21.86;55.24;100536.38;4972232;28;19914;-76
2023/06/15 00:32:12;;;;;;;;;;;;;;;21.86;55.56;100536.38;4960029;28;19914;-77
2023/06/15 00:34:57;;;;;;;;;;;;;;;21.42;56.83;100528.44;4973103;28;19918;-75
2023/06/15 00:37:42;;;;;;;;;;;;;;;20.73;59.40;100531.34;4973404;28;19914;-76
2023/06/15 00:40:26;;;;;;;;;;;;;;;20.59;60.32;100533.25;4974746;28;20391;-77
2023/06/15 00:43:11;;;;;;;;;;;;;;;20.47;60.70;100529.66;4944275;28;19914;-76
2023/06/15 00:45:56;;;;;;;;;;;;;;;20.37;61.60;100530.38;4956219;28;19922;-76
2023/06/15 00:48:41;;;;;;;;;;;;;;;20.35;61.93;100521.72;4969525;28;19914;-76
2023/06/15 00:51:26;;;;;;;;;;;;;;;20.32;62.11;100529.94;4963443;28;19914;-76
2023/06/15 00:54:12;;;;;;;;;;;;;;;20.73;60.53;100530.56;4966413;28;19922;-76
2023/06/15 00:56:57;;;;;;;;;;;;;;;20.33;62.35;100526.81;4963777;28;19930;-76
2023/06/15 00:59:41;;;;;;;;;;;;;;;20.39;61.93;100524.47;4965878;28;19914;-76
2023/06/15 01:02:28;;;;;;;;;;;;;;;20.45;62.12;100526.50;4969782;28;20371;-75
2023/06/15 01:05:16;;;;;;;;;;;;;;;20.26;62.49;100526.75;4954095;28;19918;-76
2023/06/15 01:08:05;;;;;;;;;;;;;;;20.19;62.96;100521.19;4968047;28;19914;-76
2023/06/15 01:10:56;;;;;;;;;;;;;;;19.91;63.32;100519.00;4971303;28;19914;-77
2023/06/15 01:13:44;;;;;;;;;;;;;;;20.13;62.99;100519.16;4975742;28;19922;-77
2023/06/15 01:16:34;;;;;;;;;;;;;;;20.36;62.21;100517.78;4962756;28;19913;-76
2023/06/15 01:19:37;;;;;;;;;;;;;;;20.62;61.80;100513.16;4974926;28;19914;-76
2023/06/15 01:22:34;;;;;;;;;;;;;;;20.99;60.42;100515.66;4953546;28;19914;-76
2023/06/15 01:25:29;;;;;;;;;;;;;;;21.22;60.44;100514.19;4957652;28;19914;-76
2023/06/15 01:28:15;;;;;;;;;;;;;;;21.61;60.34;100519.75;4959829;28;19922;-76
2023/06/15 01:31:01;;;;;;;;;;;;;;;21.82;59.79;100518.97;4980540;28;19914;-76
2023/06/15 01:33:48;;;;;;;;;;;;;;;21.31;59.22;100519.34;4962590;28;19922;-75
2023/06/15 01:36:32;;;;;;;;;;;;;;;20.34;63.52;100508.28;4944124;29;19914;-75
2023/06/15 01:39:17;;;;;;;;;;;;;;;20.00;64.97;100513.97;4958982;28;19914;-77
2023/06/15 01:42:01;;;;;;;;;;;;;;;20.32;64.09;100510.63;4961900;28;19914;-76
2023/06/15 01:44:49;;;;;;;;;;;;;;;20.35;63.53;100504.34;4974378;28;19914;-77
2023/06/15 01:47:34;;;;;;;;;;;;;;;20.73;62.51;100508.44;4962400;28;19918;-76
2023/06/15 01:50:18;;;;;;;;;;;;;;;21.03;62.06;100511.72;4952732;28;19914;-76
2023/06/15 01:53:03;;;;;;;;;;;;;;;21.08;61.23;100511.34;4955410;28;19914;-76
2023/06/15 01:55:48;;;;;;;;;;;;;;;21.37;60.68;100515.00;4949553;28;20303;-76
2023/06/15 01:58:33;;;;;;;;;;;;;;;21.62;59.99;100520.56;4976170;28;19918;-76
2023/06/15 02:01:17;;;;;;;;;;;;;;;21.87;59.71;100526.88;5040324;23;19937;-81
2023/06/15 02:04:02;;;;;;;;;;;;;;;22.03;59.50;100524.53;4998220;28;20386;-82
2023/06/15 02:06:46;;;;;;;;;;;;;;;21.86;59.54;100525.28;4988564;28;20378;-81
2023/06/15 02:09:31;;;;;;;;;;;;;;;21.24;60.81;100528.41;5006148;28;19913;-82
2023/06/15 02:12:15;;;;;;;;;;;;;;;20.84;63.61;100523.13;5003223;28;19922;-82
2023/06/15 02:15:03;;;;;;;;;;;;;;;21.36;62.15;100526.44;4995646;28;19914;-81
2023/06/15 02:17:48;;;;;;;;;;;;;;;21.75;60.51;100532.81;5009563;28;19913;-82
2023/06/15 02:20:34;;;;;;;;;;;;;;;21.63;59.66;100528.47;4995571;28;20278;-81
2023/06/15 02:23:19;;;;;;;;;;;;;;;20.53;64.65;100529.28;4991516;28;19914;-82
2023/06/15 02:26:04;;;;;;;;;;;;;;;21.37;61.97;100525.28;4998934;28;19913;-82
2023/06/15 02:28:49;;;;;;;;;;;;;;;20.98;63.44;100531.44;5004051;28;19918;-81
2023/06/15 02:31:33;;;;;;;;;;;;;;;21.25;62.06;100518.91;5002378;28;19917;-81
2023/06/15 02:34:18;;;;;;;;;;;;;;;20.86;61.69;100523.53;4997159;28;19913;-81
2023/06/15 02:37:02;;;;;;;;;;;;;;;20.37;62.30;100513.81;5010215;28;19913;-82
2023/06/15 02:39:48;;;;;;;;;;;;;;;19.57;65.09;100512.81;4988842;28;19913;-81
2023/06/15 02:42:32;;;;;;;;;;;;;;;20.40;64.95;100510.28;4985204;28;19914;-82
2023/06/15 02:45:17;;;;;;;;;;;;;;;20.83;63.52;100511.25;4982888;28;19918;-81
2023/06/15 02:48:02;;;;;;;;;;;;;;;20.92;62.69;100510.91;4984324;28;19914;-82
2023/06/15 02:50:47;;;;;;;;;;;;;;;20.26;64.26;100510.19;5008716;28;19913;-87
2023/06/15 02:53:37;;;;;;;;;;;;;;;19.76;65.33;100506.25;4997033;28;19918;-82
2023/06/15 02:56:21;;;;;;;;;;;;;;;18.73;70.63;100507.97;5009613;28;19913;-82
2023/06/15 02:59:07;;;;;;;;;;;;;;;18.45;72.06;100510.31;5006835;28;20301;-84
2023/06/15 03:02:15;;;;;;;;;;;;;;;19.58;69.08;100499.81;5003051;28;19913;-83
2023/06/15 03:04:59;;;;;;;;;;;;;;;20.45;65.58;100496.13;5015577;28;19913;-84
2023/06/15 03:07:55;;;;;;;;;;;;;;;20.88;64.20;100504.56;4989453;28;19913;-83
2023/06/15 03:10:47;;;;;;;;;;;;;;;21.17;62.76;100509.03;4985720;28;19914;-83
2023/06/15 03:13:33;;;;;;;;;;;;;;;21.39;62.44;100500.75;4995346;28;19917;-84
2023/06/15 03:16:17;;;;;;;;;;;;;;;21.69;60.89;100495.63;4995336;28;19921;-84
2023/06/15 03:19:07;;;;;;;;;;;;;;;21.93;60.58;100496.81;5009761;28;19913;-84
2023/06/15 03:21:52;;;;;;;;;;;;;;;22.05;59.46;100494.44;5017902;28;19913;-85
2023/06/15 03:24:39;;;;;;;;;;;;;;;21.37;61.92;100503.94;4999321;28;19913;-84
2023/06/15 03:27:26;;;;;;;;;;;;;;;21.22;60.85;100503.13;4986568;28;19914;-85
2023/06/15 03:30:11;;;;;;;;;;;;;;;21.11;61.76;100510.56;5007090;28;19913;-84
2023/06/15 03:32:59;;;;;;;;;;;;;;;21.45;60.32;100504.72;5001303;28;19921;-85
2023/06/15 03:35:47;;;;;;;;;;;;;;;21.05;62.43;100525.94;5006166;28;19917;-85
2023/06/15 03:38:31;;;;;;;;;;;;;;;21.57;61.17;100523.72;5010452;28;19913;-85
2023/06/15 03:41:17;;;;;;;;;;;;;;;21.74;60.48;100520.16;5001395;28;19918;-84
2023/06/15 03:44:01;;;;;;;;;;;;;;;21.90;59.80;100525.28;5011008;28;19913;-85
2023/06/15 03:46:47;;;;;;;;;;;;;;;21.89;60.02;100527.25;4993174;28;19914;-84
2023/06/15 03:49:32;;;;;;;;;;;;;;;21.74;58.83;100522.91;4991133;28;19914;-84
2023/06/15 03:52:18;;;;;;;;;;;;;;;21.60;59.63;100522.91;4998436;28;19917;-84
2023/06/15 03:55:03;;;;;;;;;;;;;;;21.97;60.08;100528.88;5005615;28;19925;-84
2023/06/15 03:57:47;;;;;;;;;;;;;;;22.18;59.02;100523.31;4987189;28;20328;-85
2023/06/15 04:00:32;;;;;;;;;;;;;;;22.17;59.04;100530.03;5022062;28;19935;-85
2023/06/15 04:03:17;;;;;;;;;;;;;;;22.12;59.25;100533.22;5026662;28;19921;-85
2023/06/15 04:06:04;;;;;;;;;;;;;;;21.90;59.63;100534.38;4998765;28;20290;-85
2023/06/15 04:08:49;;;;;;;;;;;;;;;21.42;59.90;100536.75;4999276;28;20068;-85
2023/06/15 04:11:34;;;;;;;;;;;;;;;21.77;60.22;100544.28;4993134;28;19917;-85
2023/06/15 04:14:18;;;;;;;;;;;;;;;22.07;59.42;100541.13;4999098;28;19913;-85
2023/06/15 04:17:04;;;;;;;;;;;;;;;22.23;58.68;100538.75;4997501;28;19913;-85
2023/06/15 04:19:48;;;;;;;;;;;;;;;22.35;58.07;100545.84;5016192;28;19913;-85
2023/06/15 04:22:32;;;;;;;;;;;;;;;22.34;57.92;100544.28;5015042;28;19921;-85
2023/06/15 04:25:17;;;;;;;;;;;;;;;21.98;59.28;100538.78;4997419;28;19922;-83
2023/06/15 04:28:05;;;;;;;;;;;;;;;22.22;58.73;100537.16;5012166;28;19913;-85
2023/06/15 04:31:20;;;;;;;;;;;;;;;22.19;58.80;100537.97;5015164;28;19913;-85
2023/06/15 04:34:06;;;;;;;;;;;;;;;22.23;58.66;100537.94;5010658;28;19925;-83
2023/06/15 04:36:53;;;;;;;;;;;;;;;22.40;58.03;100542.69;4996852;28;19913;-84
2023/06/15 04:39:38;;;;;;;;;;;;;;;22.35;57.58;100540.31;4992022;28;19914;-84
2023/06/15 04:42:24;;;;;;;;;;;;;;;22.13;58.00;100543.13;4997318;28;19918;-84
2023/06/15 04:45:09;;;;;;;;;;;;;;;21.89;58.66;100546.63;5006314;28;19913;-85
2023/06/15 04:47:55;;;;;;;;;;;;;;;21.67;60.07;100542.31;5012276;28;19913;-85
2023/06/15 04:50:47;;;;;;;;;;;;;;;21.37;61.64;100539.09;4992577;28;19918;-85
2023/06/15 04:53:32;;;;;;;;;;;;;;;21.43;61.43;100549.41;5006107;28;19917;-85
2023/06/15 04:56:17;;;;;;;;;;;;;;;21.60;61.28;100539.53;5014560;28;19913;-85
2023/06/15 04:59:03;;;;;;;;;;;;;;;21.69;60.52;100548.22;5016959;28;19913;-87
2023/06/15 05:01:48;;;;;;;;;;;;;;;21.85;59.86;100556.13;5000617;28;19917;-86
2023/06/15 05:04:58;;;;;;;;;;;;;;;21.73;60.28;100562.88;5017092;28;20302;-86
2023/06/15 05:07:45;;;;;;;;;;;;;;;21.37;61.28;100559.25;4999907;28;20383;-86
2023/06/15 05:10:30;;;;;;;;;;;;;;;21.27;61.55;100563.59;4990962;28;19913;-86
2023/06/15 05:13:15;;;;;;;;;;;;;;;21.57;61.40;100556.94;5001719;28;19917;-84
2023/06/15 05:16:00;;;;;;;;;;;;;;;21.86;60.96;100560.50;5006781;28;19942;-86
2023/06/15 05:18:46;;;;;;;;;;;;;;;21.58;62.28;100553.78;4996776;28;19913;-86
2023/06/15 05:21:31;;;;;;;;;;;;;;;21.99;60.76;100564.50;5027152;28;19914;-86
2023/06/15 05:24:16;;;;;;;;;;;;;;;22.07;60.17;100558.56;5020559;28;19913;-86
2023/06/15 05:27:02;;;;;;;;;;;;;;;22.18;60.01;100564.09;5002566;28;19913;-86
2023/06/15 05:29:48;;;;;;;;;;;;;;;21.80;60.72;100564.84;4994139;28;19914;-88
2023/06/15 05:32:37;;;;;;;;;;;;;;;22.14;60.15;100566.88;5005659;28;19918;-85
2023/06/15 05:35:22;;;;;;;;;;;;;;;22.28;59.32;100571.59;5003610;28;19914;-87
2023/06/15 05:38:07;;;;;;;;;;;;;;;22.30;59.13;100571.19;5002951;28;20394;-86
2023/06/15 05:40:54;;;;;;;;;;;;;;;22.38;58.86;100572.75;4986041;28;19913;-86
2023/06/15 05:43:39;;;;;;;;;;;;;;;22.33;59.41;100581.47;5002093;28;20114;-86
2023/06/15 05:46:24;;;;;;;;;;;;;;;22.45;58.88;100578.31;5004517;28;19914;-86
2023/06/15 05:49:09;;;;;;;;;;;;;;;22.50;58.37;100586.97;5003291;28;19913;-87
2023/06/15 05:51:55;;;;;;;;;;;;;;;22.55;58.52;100583.03;5006033;28;20395;-86
2023/06/15 05:54:43;;;;;;;;;;;;;;;22.43;58.85;100587.00;5022011;28;19913;-87
2023/06/15 05:57:27;;;;;;;;;;;;;;;22.57;58.02;100591.72;5005994;28;19914;-86
2023/06/15 06:00:14;;;;;;;;;;;;;;;22.65;57.51;100595.28;5009544;28;19913;-87
2023/06/15 06:03:01;;;;;;;;;;;;;;;22.58;58.31;100590.53;5010424;28;19913;-86
2023/06/15 06:05:55;;;;;;;;;;;;;;;22.45;58.15;100594.94;4995361;28;19921;-86
2023/06/15 06:08:42;;;;;;;;;;;;;;;22.50;57.54;100600.81;5017825;28;19913;-85
2023/06/15 06:11:27;;;;;;;;;;;;;;;22.36;57.82;100600.06;5023811;28;19913;-85
2023/06/15 06:14:16;;;;;;;;;;;;;;;22.55;57.34;100605.19;5008166;28;20141;-83
2023/06/15 06:17:00;;;;;;;;;;;;;;;21.60;60.47;100598.44;5009918;28;19917;-83
2023/06/15 06:19:47;;;;;;;;;;;;;;;21.71;60.47;100598.44;5007313;28;19913;-83
2023/06/15 06:22:32;;;;;;;;;;;;;;;21.31;61.15;100603.13;5014612;28;19913;-83
2023/06/15 06:25:16;;;;;;;;;;;;;;;21.24;61.38;100599.53;5005853;28;19914;-83
2023/06/15 06:28:01;;;;;;;;;;;;;;;21.55;60.79;100603.56;5018203;28;19914;-84
2023/06/15 06:30:46;;;;;;;;;;;;;;;21.73;60.84;100607.97;5015650;28;19921;-83
2023/06/15 06:33:31;;;;;;;;;;;;;;;21.66;60.88;100607.94;5005510;28;19918;-83
2023/06/15 06:36:15;;;;;;;;;;;;;;;21.91;60.21;100604.41;5011029;28;19913;-84
2023/06/15 06:39:00;;;;;;;;;;;;;;;21.81;60.41;100605.97;5010759;28;19917;-84
2023/06/15 06:41:45;;;;;;;;;;;;;;;22.23;59.07;100610.78;4994528;28;19913;-84
2023/06/15 06:44:31;;;;;;;;;;;;;;;22.29;59.16;100613.94;5006281;28;19917;-84
2023/06/15 06:47:15;;;;;;;;;;;;;;;22.52;58.51;100612.31;5000677;28;19913;-84
2023/06/15 06:50:00;;;;;;;;;;;;;;;22.50;58.94;100606.38;5008681;28;19917;-84
2023/06/15 06:52:44;;;;;;;;;;;;;;;22.66;58.04;100605.94;5002537;28;19917;-84
2023/06/15 06:55:29;;;;;;;;;;;;;;;22.39;58.27;100604.81;5006697;28;19913;-85
2023/06/15 06:58:13;;;;;;;;;;;;;;;22.33;57.62;100615.53;4969266;28;19939;-84
2023/06/15 07:00:57;;;;;;;;;;;;;;;22.48;57.33;100606.00;4991820;28;19913;-85
2023/06/15 07:03:42;;;;;;;;;;;;;;;22.54;56.29;100609.94;4976587;28;19914;-85
2023/06/15 07:06:26;;;;;;;;;;;;;;;22.76;56.19;100607.94;4984842;28;19914;-85
2023/06/15 07:09:11;;;;;;;;;;;;;;;22.95;55.97;100601.94;5001057;28;19914;-84
2023/06/15 07:12:00;;;;;;;;;;;;;;;22.95;54.88;100606.69;4976929;28;19914;-80
2023/06/15 07:14:45;;;;;;;;;;;;;;;23.09;55.48;100606.63;5004794;28;19913;-84
2023/06/15 07:17:30;;;;;;;;;;;;;;;23.23;54.66;100603.78;4991544;28;20374;-84
2023/06/15 07:20:14;;;;;;;;;;;;;;;23.34;53.20;100606.53;4991910;28;19914;-85
2023/06/15 07:22:59;;;;;;;;;;;;;;;23.43;53.10;100604.88;4977692;28;19918;-85
2023/06/15 07:25:43;;;;;;;;;;;;;;;23.47;52.76;100602.09;4996779;28;19913;-84
2023/06/15 07:28:28;;;;;;;;;;;;;;;23.30;51.25;100600.19;5004134;28;19913;-84
2023/06/15 07:31:14;;;;;;;;;;;;;;;23.31;49.48;100610.13;4990225;28;19922;-83
2023/06/15 07:33:59;;;;;;;;;;;;;;;23.40;49.76;100604.91;4980777;28;19918;-84
2023/06/15 07:36:43;;;;;;;;;;;;;;;23.77;48.40;100615.44;4994666;28;19914;-83
2023/06/15 07:39:28;;;;;;;;;;;;;;;23.78;49.59;100606.66;4979997;28;19914;-81
2023/06/15 07:42:13;;;;;;;;;;;;;;;23.87;47.10;100609.78;4985462;28;19913;-80
2023/06/15 07:44:58;;;;;;;;;;;;;;;23.53;48.17;100611.59;5006195;28;19917;-80
2023/06/15 07:47:42;;;;;;;;;;;;;;;23.27;48.07;100603.78;5020060;28;19913;-82
2023/06/15 07:50:28;;;;;;;;;;;;;;;23.98;47.45;100612.47;5010217;28;19917;-82
2023/06/15 07:53:13;;;;;;;;;;;;;;;24.25;46.75;100607.91;5015689;28;19918;-83
2023/06/15 07:55:58;;;;;;;;;;;;;;;23.71;46.47;100609.50;5009737;28;19913;-82
2023/06/15 07:58:43;;;;;;;;;;;;;;;23.84;46.66;100607.81;5003793;28;19902;-82
2023/06/15 08:01:27;;;;;;;;;;;;;;;23.92;47.20;100600.25;5025084;23;19921;-76
2023/06/15 08:04:14;;;;;;;;;;;;;;;23.98;46.43;100603.34;4991856;28;20318;-76
2023/06/15 08:06:58;;;;;;;6.90;2.17;;;;;;;24.56;45.67;100597.69;4983412;28;20431;-77
2023/06/15 08:09:43;;;;;;;4.30;1.77;;;;;;;24.60;44.85;100603.19;4967504;28;20065;-78
2023/06/15 08:12:28;;;;;;;3.60;1.70;;;;;;;24.35;44.09;100592.34;4975243;28;20595;-78
2023/06/15 08:15:12;;;;;;;;;;;;;;;24.63;44.64;100600.41;4987146;28;20061;-77
2023/06/15 08:17:56;;;;;;;2.42;1.85;;;;;;;24.77;44.54;100599.44;4981148;28;19922;-77
2023/06/15 08:20:42;;;;;;;3.50;1.80;;;;;;;24.56;45.46;100596.91;4967068;28;20050;-76
2023/06/15 08:23:27;;;;;;;12.60;3.42;;;;;;;24.45;45.39;100599.78;4977434;28;20053;-77
2023/06/15 08:26:11;;;;;;;9.25;3.25;;;;;;;24.57;45.12;100602.06;4965890;28;20526;-77
2023/06/15 08:28:56;;;;;;;;;;;;;;;24.78;45.04;100603.03;4973804;28;20518;-77
2023/06/15 08:31:40;;;;;;;4.73;2.33;;;;;;;24.95;43.88;100604.81;4973660;28;19914;-78
2023/06/15 08:34:25;;;;;;;2.90;2.33;;;;;;;24.59;43.91;100596.84;4963969;28;20041;-77
2023/06/15 08:37:12;;;;;;;2.33;2.05;;;;;;;24.73;45.13;100601.50;4975503;28;20538;-77
2023/06/15 08:39:57;;;;;;;3.83;2.80;;;;;;;24.71;44.66;100609.44;4973871;28;20046;-77
2023/06/15 08:42:42;;;;;;;4.65;2.50;;;;;;;24.89;44.75;100603.72;4974440;28;20057;-77
2023/06/15 08:45:35;;;;;;;6.80;3.10;;;;;;;24.61;45.71;100605.59;4974145;28;20134;-77
2023/06/15 08:48:21;;;;;;;4.05;2.15;;;;;;;24.97;44.44;100605.22;4989496;28;20045;-76
2023/06/15 08:51:08;;;;;;;5.07;3.10;;;;;;;25.13;43.61;100610.97;4979224;28;20050;-77
2023/06/15 08:53:56;;;;;;;5.95;3.05;;;;;;;25.15;44.00;100608.56;4978848;28;20642;-77
2023/06/15 08:56:41;;;;;;;6.30;3.03;;;;;;;24.93;45.26;100602.47;4965323;28;20127;-77
2023/06/15 08:59:26;;;;;;;6.22;4.07;;;;;;;25.22;43.91;100602.09;4982926;28;20050;-77
2023/06/15 09:02:22;;;;;;;6.65;2.50;;;;;;;25.45;42.97;100602.97;4982534;28;20423;-77
2023/06/15 09:05:07;;;;;;;8.13;2.22;;;;;;;25.76;42.13;100600.16;4985302;28;20423;-78
2023/06/15 09:07:53;;;;;;;7.93;2.00;;;;;;;25.19;43.80;100597.41;4977243;28;20058;-78
2023/06/15 09:10:38;;;;;;;3.60;2.40;;;;;;;25.68;42.68;100598.72;4976392;28;20514;-78
2023/06/15 09:13:22;;;;;;;5.97;2.70;;;;;;;26.01;42.56;100591.44;4973236;28;20701;-78
2023/06/15 09:16:08;;;;;;;3.42;2.20;;;;;;;25.92;42.03;100589.16;4985654;28;20049;-78
2023/06/15 09:18:53;;;;;;;5.60;2.55;;;;;;;25.74;42.77;100599.81;4983864;28;20057;-78
2023/06/15 09:21:42;;;;;;;6.13;4.70;;;;;;;25.86;41.04;100585.28;4980891;28;20049;-78
2023/06/15 09:24:27;;;;;;;12.52;4.22;;;;;;;26.11;40.64;100593.25;4968747;28;20610;-77
2023/06/15 09:27:15;;;;;;;14.02;6.57;;;;;;;25.69;42.20;100580.78;4985528;28;20057;-77
2023/06/15 09:30:05;;;;;;;6.45;3.83;;;;;;;25.76;41.19;100589.03;4988930;28;20451;-78
2023/06/15 09:32:50;;;;;;;16.67;9.18;;;;;;;25.23;43.17;100578.66;4978392;28;20518;-78
2023/06/15 09:35:35;;;;;;;5.90;3.20;;;;;;;25.50;43.10;100573.88;4986270;28;20045;-78
2023/06/15 09:38:20;;;;;;;16.95;4.10;;;;;;;25.65;42.50;100583.63;4994876;28;20053;-78
2023/06/15 09:41:06;;;;;;;40.38;20.23;;;;;;;25.64;42.49;100570.13;4980360;28;20053;-78
2023/06/15 09:43:51;;;;;;;25.27;18.85;;;;;;;25.63;42.77;100574.13;4983288;28;20030;-77
2023/06/15 09:46:38;;;;;;;10.05;5.38;;;;;;;26.04;40.98;100588.59;4981360;28;20503;-78
2023/06/15 09:49:25;;;;;;;11.55;3.22;;;;;;;25.98;40.36;100584.69;4985037;28;20053;-78
2023/06/15 09:52:13;;;;;;;41.50;13.75;;;;;;;25.24;43.63;100583.00;4981746;28;20053;-78
2023/06/15 09:54:59;;;;;;;20.30;5.78;;;;;;;25.67;41.54;100580.41;4994504;28;20043;-78
2023/06/15 09:57:44;;;;;;;14.77;5.60;;;;;;;25.42;41.80;100575.97;4985308;28;20049;-78
2023/06/15 10:00:29;;;;;;;12.88;5.00;;;;;;;25.33;42.38;100572.94;4994318;28;20057;-78
2023/06/15 10:03:18;;;;;;;6.95;2.83;;;;;;;25.71;41.48;100568.00;4980944;28;20081;-78
2023/06/15 10:06:16;;;;;;;9.40;2.97;;;;;;;26.19;40.50;100573.19;4979833;28;20045;-78
2023/06/15 10:09:04;;;;;;;6.57;3.05;;;;;;;26.25;40.12;100579.88;4982306;28;20058;-78
2023/06/15 10:11:50;;;;;;;13.20;2.92;;;;;;;26.06;40.72;100575.00;4980128;28;20364;-78
2023/06/15 10:14:41;;;;;;;10.02;3.05;;;;;;;25.30;43.14;100568.19;4988401;28;20050;-78
2023/06/15 10:17:33;;;;;;;7.57;2.47;;;;;;;25.44;41.47;100564.44;4988766;28;20403;-78
2023/06/15 10:20:23;;;;;;;9.68;2.78;;;;;;;25.84;40.36;100569.00;4973532;28;20073;-79
2023/06/15 10:23:13;;;;;;;7.13;2.58;;;;;;;26.23;38.14;100556.41;4971125;28;20042;-78
2023/06/15 10:25:58;;;;;;;3.17;2.10;;;;;;;26.31;38.60;100558.63;4975595;28;20045;-78
2023/06/15 10:28:50;;;;;;;3.00;2.70;;;;;;;26.23;38.81;100557.22;4965504;28;20048;-78
2023/06/15 10:31:43;;;;;;;9.88;2.30;;;;;;;26.31;39.11;100549.50;4993855;28;20096;-78
2023/06/15 10:34:41;;;;;;;9.30;2.20;;;;;;;26.46;38.76;100550.03;4980226;28;20050;-77
2023/06/15 10:37:51;;;;;;;2.80;2.22;;;;;;;27.00;37.52;100551.34;4970262;28;20438;-77
2023/06/15 10:41:03;;;;;;;3.63;2.38;;;;;;;26.95;37.42;100551.84;4984249;28;20170;-78
2023/06/15 10:44:05;;;;;;;6.55;2.40;;;;;;;26.96;36.86;100555.44;4986078;28;20053;-77
2023/06/15 10:47:10;;;;;;;3.85;2.15;;;;;;;26.30;39.19;100548.72;4976613;28;20049;-78
2023/06/15 10:49:55;;;;;;;;;;;;;;;26.81;39.16;100546.53;4992300;28;20053;-78
2023/06/15 10:52:40;;;;;;;4.60;2.53;;;;;;;26.71;38.31;100548.34;4992708;28;19913;-78
2023/06/15 10:55:27;;;;;;;3.50;2.35;;;;;;;27.18;36.61;100550.94;4980661;28;20702;-77
2023/06/15 10:58:16;;;;;;;3.88;2.03;;;;;;;26.82;37.32;100548.88;4974629;28;20073;-78
2023/06/15 11:01:11;;;;;;;3.75;1.85;;;;;;;26.25;38.68;100540.06;4981719;28;20077;-78
2023/06/15 11:03:56;;;;;;;10.35;2.80;;;;;;;27.14;37.72;100558.63;4992776;28;20045;-78
2023/06/15 11:06:41;;;;;;;6.68;2.45;;;;;;;26.88;37.86;100548.41;4984442;28;20673;-77
2023/06/15 11:09:31;;;;;;;50.08;4.95;;;;;;;27.19;37.44;100553.31;4948524;28;20053;-78
2023/06/15 11:12:35;;;;;;;13.38;3.67;;;;;;;26.48;39.47;100545.59;4958771;28;20062;-77
2023/06/15 11:15:20;;;;;;;6.88;2.08;;;;;;;26.15;40.46;100544.59;4962904;28;20050;-78
2023/06/15 11:18:14;;;;;;;9.32;1.95;;;;;;;25.61;41.90;100543.09;4974482;28;20050;-78
2023/06/15 11:21:00;;;;;;;3.85;1.80;;;;;;;25.62;41.75;100537.13;4980361;28;20046;-77
2023/06/15 11:23:49;;;;;;;6.13;1.90;;;;;;;25.66;41.60;100537.06;4990549;28;20041;-78
2023/06/15 11:26:39;;;;;;;5.22;2.05;;;;;;;25.49;41.70;100530.53;4986500;28;20057;-78
2023/06/15 11:29:25;;;;;;;2.85;1.95;;;;;;;25.95;39.29;100530.59;4982310;28;20045;-78
2023/06/15 11:32:10;;;;;;;3.45;2.35;;;;;;;26.26;39.03;100522.88;4963055;28;20053;-77
2023/06/15 11:34:56;;;;;;;3.45;2.17;;;;;;;26.65;37.60;100529.72;4985615;28;20050;-78
2023/06/15 11:37:41;;;;;;;1.92;1.73;;;;;;;26.62;38.43;100524.97;4983791;28;20049;-78
2023/06/15 11:40:25;;;;;;;;;;;;;;;26.85;37.69;100527.72;4988136;28;20054;-78
2023/06/15 11:43:11;;;;;;;3.80;1.88;;;;;;;26.42;39.08;100527.78;4988422;28;19918;-78
2023/06/15 11:45:56;;;;;;;3.70;2.15;;;;;;;26.43;36.62;100525.78;4972816;28;20065;-77
2023/06/15 11:48:45;;;;;;;9.48;2.63;;;;;;;26.87;36.20;100527.31;4982276;28;20054;-77
2023/06/15 11:51:30;;;;;;;5.07;2.55;;;;;;;26.82;37.71;100523.75;4977227;28;20061;-76
2023/06/15 11:54:15;;;;;;;;;;;;;;;26.59;38.48;100520.28;4971683;28;20061;-77
2023/06/15 11:57:00;;;;;;;4.35;2.10;;;;;;;26.68;37.84;100514.91;4969460;28;20386;-78
2023/06/15 11:59:45;;;;;;;4.00;2.22;;;;;;;26.75;36.76;100521.13;4992464;28;20053;-78
2023/06/15 12:02:29;;;;;;;3.63;2.13;;;;;;;26.94;35.90;100513.97;4977499;28;20065;-78
2023/06/15 12:05:17;;;;;;;5.30;2.20;;;;;;;26.75;37.39;100515.56;4967742;28;20049;-78
2023/06/15 12:08:03;;;;;;;6.90;2.17;;;;;;;26.18;39.68;100501.91;4973916;28;20526;-78
2023/06/15 12:10:48;;;;;;;3.58;2.38;;;;;;;25.94;40.72;100500.38;4977866;28;20069;-79
2023/06/15 12:13:37;;;;;;;4.40;2.00;;;;;;;26.36;38.60;100494.00;4977604;28;20049;-78
2023/06/15 12:16:22;;;;;;;4.45;1.95;;;;;;;26.85;35.73;100493.44;4992210;28;20061;-79
2023/06/15 12:19:10;;;;;;;6.43;1.85;;;;;;;26.53;38.58;100503.25;4984557;28;20529;-78
2023/06/15 12:21:58;;;;;;;12.48;2.45;;;;;;;26.81;36.92;100507.47;4977725;28;20054;-79
2023/06/15 12:24:48;;;;;;;4.53;1.98;;;;;;;26.75;38.10;100504.41;4983845;28;20054;-78
2023/06/15 12:27:33;;;;;;;5.70;2.50;;;;;;;26.28;38.34;100497.38;4975703;28;20070;-79
2023/06/15 12:30:20;;;;;;;4.05;2.10;;;;;;;26.25;37.52;100496.25;4981394;28;20066;-78
2023/06/15 12:33:04;;;;;;;4.55;2.58;;;;;;;26.66;36.80;100497.81;4977220;28;20050;-79
2023/06/15 12:35:50;;;;;;;32.25;3.97;;;;;;;27.11;36.90;100498.84;4979727;28;20061;-79
2023/06/15 12:38:35;;;;;;;3.42;2.00;;;;;;;27.39;34.88;100500.19;4981191;28;20411;-78
2023/06/15 12:41:20;;;;;;;6.53;2.65;;;;;;;27.41;35.37;100494.19;4980637;28;20526;-79
2023/06/15 12:44:06;;;;;;;9.88;2.50;;;;;;;27.14;36.44;100486.81;4979475;28;20061;-77
2023/06/15 12:46:51;;;;;;;4.03;1.73;;;;;;;27.46;33.91;100493.66;4994774;28;20511;-78
2023/06/15 12:49:36;;;;;;;5.53;1.75;;;;;;;27.26;35.23;100492.94;4994801;28;20089;-78
2023/06/15 12:52:20;;;;;;;2.88;1.63;;;;;;;27.03;35.32;100486.25;4995482;28;20061;-80
2023/06/15 12:55:06;;;;;;;2.40;2.15;;;;;;;26.86;36.57;100487.44;4975474;28;20041;-78
2023/06/15 12:57:51;;;;;;;3.45;2.05;;;;;;;26.83;36.37;100488.28;4986088;28;20054;-77
2023/06/15 13:00:36;;;;;;;4.45;2.15;;;;;;;26.76;36.70;100482.88;4967929;28;20530;-78
2023/06/15 13:03:21;;;;;;;4.57;2.22;;;;;;;26.66;37.69;100479.09;4989872;28;20061;-78
2023/06/15 13:06:06;;;;;;;2.65;2.03;;;;;;;26.90;37.81;100477.00;4988032;28;20057;-76
2023/06/15 13:08:51;;;;;;;9.60;3.05;;;;;;;27.09;36.04;100473.38;4961461;28;20057;-77
2023/06/15 13:11:36;;;;;;;6.75;2.58;;;;;;;27.11;37.33;100470.94;4984205;28;20050;-77
2023/06/15 13:14:21;;;;;;;4.32;1.90;;;;;;;27.06;36.94;100471.47;4983552;28;20053;-77
2023/06/15 13:17:05;;;;;;;;;;;;;;;27.06;37.24;100471.47;4981038;28;20053;-78
2023/06/15 13:19:50;;;;;;;6.53;2.33;;;;;;;27.04;36.96;100473.88;4977437;28;19914;-77
2023/06/15 13:22:35;;;;;;;6.63;2.33;;;;;;;26.86;37.38;100464.31;4974270;28;20049;-77
2023/06/15 13:25:20;;;;;;;6.25;2.65;;;;;;;26.82;37.54;100462.38;4983584;28;20050;-77
2023/06/15 13:28:05;;;;;;;16.42;3.20;;;;;;;26.66;38.91;100472.72;4965455;28;20057;-77
2023/06/15 13:30:50;;;;;;;10.77;2.67;;;;;;;26.02;41.17;100468.38;4962173;28;20133;-76
2023/06/15 13:33:35;;;;;;;9.55;3.10;;;;;;;25.86;40.49;100462.69;4995231;28;20061;-77
2023/06/15 13:36:19;;;;;;;4.28;2.28;;;;;;;25.92;40.00;100450.63;4970661;28;20054;-77
2023/06/15 13:39:05;;;;;;;4.00;2.17;;;;;;;26.27;40.05;100451.97;4975774;28;20119;-76
2023/06/15 13:41:50;;;;;;;6.15;2.45;;;;;;;26.83;37.64;100477.13;4977075;28;20399;-77